createdAt,value
2023-01-10T00:01:09.057Z,99200.69
2023-01-10T00:03:39.256Z,99204.27
2023-01-10T00:06:11.422Z,99206.84
2023-01-10T00:08:42.918Z,99211.21
2023-01-10T00:11:31.500Z,99215.64
2023-01-10T00:14:03.254Z,99218.44
2023-01-10T00:16:35.109Z,99216.42
2023-01-10T00:19:05.762Z,99216.02
2023-01-10T00:21:38.654Z,99218.11
2023-01-10T00:24:18.035Z,99221.48
2023-01-10T00:26:57.312Z,99221.20
2023-01-10T00:29:31.639Z,99223.27
2023-01-10T00:32:20.301Z,99222.24
2023-01-10T00:34:51.836Z,99222.23
2023-01-10T00:37:22.490Z,99230.58
2023-01-10T00:39:56.893Z,99238.13
2023-01-10T00:42:44.758Z,99241.44
2023-01-10T00:45:18.425Z,99250.57
2023-01-10T00:47:49.657Z,99252.43
2023-01-10T00:50:20.290Z,99256.72
2023-01-10T00:52:50.829Z,99261.58
2023-01-10T00:55:22.475Z,99266.52
2023-01-10T00:57:52.481Z,99272.78
2023-01-10T01:00:23.903Z,99276.70
2023-01-10T01:02:54.418Z,99279.55
2023-01-10T01:05:25.465Z,99281.83
2023-01-10T01:07:55.272Z,99281.23
2023-01-10T01:10:27.210Z,99282.31
2023-01-10T01:13:02.436Z,99282.83
2023-01-10T01:15:35.578Z,99283.52
2023-01-10T01:18:08.394Z,99293.98
2023-01-10T01:20:40.808Z,99301.61
2023-01-10T01:23:12.285Z,99306.44
2023-01-10T01:25:41.390Z,99313.08
2023-01-10T01:28:14.719Z,99313.98
2023-01-10T01:30:45.315Z,99315.21
2023-01-10T01:33:17.158Z,99320.52
2023-01-10T01:35:47.210Z,99323.91
2023-01-10T01:38:18.514Z,99323.36
2023-01-10T01:40:51.079Z,99324.88
2023-01-10T01:43:24.776Z,99329.42
2023-01-10T01:45:56.261Z,99330.86
2023-01-10T01:48:29.105Z,99334.48
2023-01-10T01:51:19.893Z,99340.55
2023-01-10T01:53:58.819Z,99349.30
2023-01-10T01:56:49.361Z,99353.17
2023-01-10T01:59:24.421Z,99359.25
2023-01-10T02:01:58.660Z,99358.48
2023-01-10T02:04:38.071Z,99361.33
2023-01-10T02:07:08.486Z,99364.97
2023-01-10T02:09:51.834Z,99369.96
2023-01-10T02:12:23.286Z,99370.24
2023-01-10T02:14:56.519Z,99373.44
2023-01-10T02:17:27.779Z,99374.83
2023-01-10T02:20:00.454Z,99381.09
2023-01-10T02:22:42.055Z,99378.09
2023-01-10T02:25:14.203Z,99388.50
2023-01-10T02:28:02.995Z,99391.73
2023-01-10T02:30:34.386Z,99393.91
2023-01-10T02:33:14.927Z,99395.77
2023-01-10T02:35:53.389Z,99396.86
2023-01-10T02:38:26.944Z,99392.91
2023-01-10T02:41:17.157Z,99390.41
2023-01-10T02:43:55.051Z,99392.10
2023-01-10T02:46:28.038Z,99394.38
2023-01-10T02:49:00.366Z,99393.99
2023-01-10T02:51:35.228Z,99395.67
2023-01-10T02:54:21.484Z,99396.60
2023-01-10T02:57:26.685Z,99390.78
2023-01-10T02:59:59.432Z,99397.09
2023-01-10T03:02:29.397Z,99404.13
2023-01-10T03:05:02.716Z,99411.82
2023-01-10T03:07:36.209Z,99420.76
2023-01-10T03:10:05.939Z,99425.94
2023-01-10T03:12:41.358Z,99430.45
2023-01-10T03:15:14.801Z,99437.52
2023-01-10T03:17:45.105Z,99443.41
2023-01-10T03:20:15.929Z,99448.73
2023-01-10T03:22:49.318Z,99456.16
2023-01-10T03:25:22.755Z,99460.12
2023-01-10T03:27:52.871Z,99464.83
2023-01-10T03:30:31.633Z,99466.08
2023-01-10T03:33:02.893Z,99467.70
2023-01-10T03:35:53.661Z,99471.88
2023-01-10T03:38:48.522Z,99471.98
2023-01-10T03:41:53.898Z,99474.89
2023-01-10T03:44:51.604Z,99479.41
2023-01-10T03:47:41.383Z,99481.19
2023-01-10T03:50:27.225Z,99485.02
2023-01-10T03:53:15.369Z,99484.27
2023-01-10T03:55:46.574Z,99486.33
2023-01-10T03:58:24.206Z,99491.65
2023-01-10T04:00:55.412Z,99495.29
2023-01-10T04:03:34.091Z,99496.88
2023-01-10T04:06:05.066Z,99503.11
2023-01-10T04:08:36.827Z,99503.70
2023-01-10T04:11:08.028Z,99508.59
2023-01-10T04:13:42.965Z,99515.10
2023-01-10T04:16:16.100Z,99519.21
2023-01-10T04:18:48.823Z,99527.61
2023-01-10T04:21:21.401Z,99528.23
2023-01-10T04:23:54.399Z,99528.04
2023-01-10T04:26:26.771Z,99524.89
2023-01-10T04:28:58.988Z,99527.09
2023-01-10T04:31:28.052Z,99531.72
2023-01-10T04:34:03.296Z,99529.23
2023-01-10T04:36:37.114Z,99533.98
2023-01-10T04:39:10.461Z,99534.41
2023-01-10T04:41:43.991Z,99538.33
2023-01-10T04:44:16.614Z,99540.13
2023-01-10T04:46:48.845Z,99544.30
2023-01-10T04:49:18.369Z,99550.18
2023-01-10T04:51:53.004Z,99560.15
2023-01-10T04:55:01.993Z,99569.72
2023-01-10T04:57:38.561Z,99575.33
2023-01-10T05:00:16.509Z,99581.45
2023-01-10T05:02:47.741Z,99584.92
2023-01-10T05:05:16.904Z,99592.45
2023-01-10T05:07:47.709Z,99597.33
2023-01-10T05:10:30.779Z,99603.96
2023-01-10T05:13:01.477Z,99605.52
2023-01-10T05:15:36.570Z,99611.05
2023-01-10T05:18:27.885Z,99619.23
2023-01-10T05:21:30.194Z,99629.77
2023-01-10T05:24:00.983Z,99640.27
2023-01-10T05:26:47.402Z,99650.91
2023-01-10T05:29:41.543Z,99659.43
2023-01-10T05:32:44.080Z,99665.83
2023-01-10T05:35:40.699Z,99671.02
2023-01-10T05:38:16.329Z,99673.36
2023-01-10T05:40:55.141Z,99681.00
2023-01-10T05:43:29.565Z,99687.36
2023-01-10T05:46:03.875Z,99694.52
2023-01-10T05:48:35.663Z,99702.67
2023-01-10T05:51:10.483Z,99706.76
2023-01-10T05:53:42.848Z,99714.59
2023-01-10T05:57:03.703Z,99715.02
2023-01-10T05:59:35.110Z,99726.08
2023-01-10T06:02:06.677Z,99729.85
2023-01-10T06:04:37.263Z,99732.77
2023-01-10T06:07:06.544Z,99742.77
2023-01-10T06:09:37.737Z,99744.70
2023-01-10T06:12:09.807Z,99755.73
2023-01-10T06:14:41.325Z,99763.67
2023-01-10T06:17:12.027Z,99770.48
2023-01-10T06:19:43.326Z,99775.02
2023-01-10T06:22:14.210Z,99779.69
2023-01-10T06:24:43.358Z,99781.23
2023-01-10T06:27:14.572Z,99783.88
2023-01-10T06:30:28.699Z,99782.33
2023-01-10T06:34:08.060Z,99788.00
2023-01-10T06:37:42.870Z,99791.34
2023-01-10T06:40:48.396Z,99795.38
2023-01-10T06:43:59.350Z,99798.33
2023-01-10T06:46:28.446Z,99799.70
2023-01-10T06:48:58.582Z,99799.86
2023-01-10T06:52:06.761Z,99804.02
2023-01-10T06:55:40.941Z,99809.19
2023-01-10T06:58:35.300Z,99811.63
2023-01-10T07:01:15.052Z,99813.51
2023-01-10T07:08:28.121Z,99825.10
2023-01-10T07:11:25.542Z,99837.38
2023-01-10T07:13:57.120Z,99840.80
2023-01-10T07:16:26.741Z,99839.85
2023-01-10T07:18:59.835Z,99845.95
2023-01-10T07:21:35.019Z,99854.52
2023-01-10T07:24:05.770Z,99859.15
2023-01-10T07:26:42.489Z,99864.98
2023-01-10T07:29:22.508Z,99864.86
2023-01-10T07:31:56.419Z,99868.01
2023-01-10T07:34:28.533Z,99871.58
2023-01-10T07:36:57.954Z,99875.23
2023-01-10T07:43:52.701Z,99880.19
2023-01-10T07:46:23.938Z,99886.77
2023-01-10T07:48:53.307Z,99894.84
2023-01-10T07:51:23.966Z,99901.66
2023-01-10T07:53:53.130Z,99905.77
2023-01-10T07:56:27.382Z,99904.46
2023-01-10T08:03:12.643Z,99909.83
2023-01-10T08:08:51.402Z,99906.02
2023-01-10T08:12:29.626Z,99904.86
2023-01-10T08:15:53.714Z,99916.34
2023-01-10T08:23:42.155Z,99928.71
2023-01-10T08:27:29.581Z,99930.83
2023-01-10T08:40:33.254Z,99943.23
2023-01-10T08:43:55.455Z,99946.45
2023-01-10T08:46:26.168Z,99948.19
2023-01-10T08:48:55.966Z,99948.52
2023-01-10T08:55:43.173Z,99960.77
2023-01-10T08:58:14.529Z,99967.30
2023-01-10T09:00:46.719Z,99980.63
2023-01-10T09:03:15.810Z,99988.19
2023-01-10T09:06:05.875Z,99989.57
2023-01-10T09:08:38.739Z,99992.86
2023-01-10T09:11:08.467Z,100000.91
2023-01-10T09:13:41.382Z,100004.74
2023-01-10T09:16:11.998Z,100004.17
2023-01-10T09:18:44.830Z,100011.86
2023-01-10T09:21:22.087Z,100016.73
2023-01-10T09:24:09.364Z,100015.35
2023-01-10T09:26:39.036Z,100019.52
2023-01-10T09:29:09.063Z,100016.34
2023-01-10T09:31:38.818Z,100016.39
2023-01-10T09:34:09.005Z,100015.02
2023-01-10T09:36:39.885Z,100022.52
2023-01-10T09:39:10.868Z,100028.38
2023-01-10T09:41:42.635Z,100039.10
2023-01-10T09:44:57.132Z,100034.48
2023-01-10T09:47:47.374Z,100034.05
2023-01-10T09:50:20.075Z,100030.67
2023-01-10T09:52:59.509Z,100029.60
2023-01-10T09:55:50.924Z,100033.41
2023-01-10T09:58:27.906Z,100033.61
2023-01-10T10:01:15.316Z,100032.23
2023-01-10T10:04:01.084Z,100027.63
2023-01-10T10:06:44.206Z,100026.98
2023-01-10T10:09:35.204Z,100023.49
2023-01-10T10:12:23.370Z,100024.61
2023-01-10T10:14:53.854Z,100029.13
2023-01-10T10:17:46.426Z,100024.16
2023-01-10T10:20:28.650Z,100028.45
2023-01-10T10:27:28.166Z,100024.67
2023-01-10T10:30:35.558Z,100028.79
2023-01-10T10:33:34.620Z,100028.15
2023-01-10T10:36:10.916Z,100027.41
2023-01-10T10:38:47.513Z,100031.73
2023-01-10T10:41:52.879Z,100034.10
2023-01-10T10:44:45.692Z,100033.77
2023-01-10T10:47:34.816Z,100029.41
2023-01-10T10:50:16.037Z,100031.34
2023-01-10T10:52:51.653Z,100033.38
2023-01-10T10:55:28.207Z,100035.95
2023-01-10T10:58:01.056Z,100037.86
2023-01-10T11:00:31.353Z,100041.91
2023-01-10T11:03:03.423Z,100050.11
2023-01-10T11:05:39.104Z,100048.80
2023-01-10T11:08:23.212Z,100053.92
2023-01-10T11:10:55.244Z,100055.25
2023-01-10T11:14:10.104Z,100053.55
2023-01-10T11:16:40.852Z,100053.27
2023-01-10T11:19:18.768Z,100059.65
2023-01-10T11:22:00.145Z,100063.07
2023-01-10T11:24:57.188Z,100062.98
2023-01-10T11:27:32.789Z,100072.63
2023-01-10T11:30:04.724Z,100069.63
2023-01-10T11:32:40.294Z,100077.20
2023-01-10T11:36:00.266Z,100081.55
2023-01-10T11:39:37.126Z,100079.01
2023-01-10T11:43:34.601Z,100085.02
2023-01-10T11:46:45.068Z,100086.98
2023-01-10T11:49:26.121Z,100087.63
2023-01-10T11:52:25.141Z,100086.79
2023-01-10T11:56:25.368Z,100085.63
2023-01-10T12:00:04.485Z,100084.95
2023-01-10T12:07:06.857Z,100107.23
2023-01-10T12:09:40.969Z,100114.33
2023-01-10T12:12:22.813Z,100120.19
2023-01-10T12:14:56.111Z,100118.95
2023-01-10T12:17:27.220Z,100120.02
2023-01-10T12:20:00.791Z,100122.71
2023-01-10T12:22:39.543Z,100128.66
2023-01-10T12:25:38.655Z,100133.80
2023-01-10T12:28:20.051Z,100140.98
2023-01-10T12:30:52.169Z,100144.91
2023-01-10T12:33:55.184Z,100144.15
2023-01-10T12:36:53.638Z,100149.36
2023-01-10T12:47:32.683Z,100152.95
2023-01-10T12:50:36.025Z,100154.95
2023-01-10T12:53:15.075Z,100156.65
2023-01-10T12:56:55.834Z,100166.08
2023-01-10T13:00:19.802Z,100168.29
2023-01-10T13:03:12.649Z,100172.05
2023-01-10T13:05:56.001Z,100172.19
2023-01-10T13:08:46.073Z,100171.77
2023-01-10T13:11:57.679Z,100174.98
2023-01-10T13:15:35.560Z,100185.79
2023-01-10T13:18:29.302Z,100188.17
2023-01-10T13:21:10.388Z,100189.09
2023-01-10T13:23:47.605Z,100187.98
2023-01-10T13:26:19.467Z,100189.15
2023-01-10T13:28:55.566Z,100192.64
2023-01-10T13:31:26.973Z,100192.32
2023-01-10T13:34:00.172Z,100198.34
2023-01-10T13:36:37.153Z,100201.31
2023-01-10T13:39:09.763Z,100206.61
2023-01-10T13:42:16.900Z,100212.66
2023-01-10T13:45:03.391Z,100223.96
2023-01-10T13:47:46.614Z,100227.77
2023-01-10T13:50:46.943Z,100231.52
2023-01-10T13:53:39.814Z,100234.87
2023-01-10T13:56:42.601Z,100234.78
2023-01-10T13:59:46.544Z,100238.27
2023-01-10T14:02:56.754Z,100238.31
2023-01-10T14:06:49.428Z,100244.80
2023-01-10T14:09:24.199Z,100246.08
2023-01-10T14:12:19.271Z,100241.26
2023-01-10T14:16:03.187Z,100251.43
2023-01-10T14:19:28.041Z,100255.52
2023-01-10T14:30:26.576Z,100264.31
2023-01-10T14:33:44.982Z,100265.33
2023-01-10T14:37:01.059Z,100267.15
2023-01-10T14:39:57.461Z,100268.89
2023-01-10T14:43:28.151Z,100270.19
2023-01-10T14:46:22.026Z,100276.25
2023-01-10T14:49:43.942Z,100285.50
2023-01-10T14:52:27.723Z,100288.63
2023-01-10T14:54:58.653Z,100291.44
2023-01-10T14:58:28.058Z,100294.13
2023-01-10T15:01:40.353Z,100298.55
2023-01-10T15:05:39.741Z,100301.77
2023-01-10T15:08:18.786Z,100307.20
2023-01-10T15:10:52.439Z,100308.61
2023-01-10T15:14:23.652Z,100307.55
2023-01-10T15:17:37.963Z,100308.95
2023-01-10T15:20:08.122Z,100309.63
2023-01-10T15:22:40.386Z,100309.13
2023-01-10T15:25:19.966Z,100311.04
2023-01-10T15:27:55.593Z,100309.75
2023-01-10T15:30:59.952Z,100315.02
2023-01-10T15:33:33.587Z,100319.74
2023-01-10T15:36:15.139Z,100323.46
2023-01-10T15:38:46.667Z,100326.35
2023-01-10T15:41:20.691Z,100331.21
2023-01-10T15:43:56.042Z,100332.94
2023-01-10T15:46:29.814Z,100335.42
2023-01-10T15:49:24.176Z,100338.60
2023-01-10T15:51:58.000Z,100349.39
2023-01-10T15:55:07.621Z,100351.70
2023-01-10T15:58:40.204Z,100353.20
2023-01-10T16:01:18.002Z,100354.48
2023-01-10T16:03:58.031Z,100361.88
2023-01-10T16:06:28.532Z,100365.08
2023-01-10T16:09:02.574Z,100365.63
2023-01-10T16:12:12.290Z,100365.48
2023-01-10T16:14:41.538Z,100366.95
2023-01-10T16:17:13.323Z,100368.73
2023-01-10T16:19:43.335Z,100372.65
2023-01-10T16:22:19.048Z,100367.73
2023-01-10T16:24:52.851Z,100366.30
2023-01-10T16:27:22.887Z,100362.88
2023-01-10T16:29:55.007Z,100362.60
2023-01-10T16:32:25.701Z,100362.58
2023-01-10T16:34:56.928Z,100366.20
2023-01-10T16:37:26.334Z,100364.97
2023-01-10T16:39:58.245Z,100371.35
2023-01-10T16:42:46.292Z,100373.44
2023-01-10T16:45:20.259Z,100375.84
2023-01-10T16:47:50.048Z,100384.34
2023-01-10T16:50:22.709Z,100377.68
2023-01-10T16:52:56.353Z,100376.19
2023-01-10T16:55:35.027Z,100377.80
2023-01-10T16:58:04.994Z,100379.41
2023-01-10T17:00:37.385Z,100381.10
2023-01-10T17:03:10.600Z,100382.02
2023-01-10T17:05:42.257Z,100386.40
2023-01-10T17:08:19.816Z,100393.73
2023-01-10T17:10:52.816Z,100400.58
2023-01-10T17:13:25.469Z,100399.72
2023-01-10T17:15:56.197Z,100400.76
2023-01-10T17:18:28.861Z,100406.45
2023-01-10T17:21:01.283Z,100411.40
2023-01-10T17:23:35.564Z,100411.86
2023-01-10T17:26:06.154Z,100415.95
2023-01-10T17:31:48.553Z,100408.98
2023-01-10T17:35:11.356Z,100415.00
2023-01-10T17:38:43.696Z,100414.92
2023-01-10T17:58:37.817Z,100423.08
2023-01-10T18:05:50.768Z,100423.07
2023-01-10T18:08:15.334Z,100424.88
2023-01-10T18:10:45.155Z,100425.44
2023-01-10T18:17:38.338Z,100429.23
2023-01-10T18:21:03.610Z,100434.02
2023-01-10T18:24:33.319Z,100436.10
2023-01-10T18:27:46.259Z,100440.67
2023-01-10T18:30:41.157Z,100446.08
2023-01-10T18:33:54.026Z,100447.67
2023-01-10T18:37:08.254Z,100458.86
2023-01-10T18:40:09.982Z,100465.20
2023-01-10T18:43:04.781Z,100463.31
2023-01-10T18:47:14.008Z,100463.11
2023-01-10T18:50:49.941Z,100460.17
2023-01-10T18:54:29.528Z,100461.78
2023-01-10T18:57:26.278Z,100471.04
2023-01-10T19:00:05.203Z,100472.44
2023-01-10T19:02:46.007Z,100478.10
2023-01-10T19:06:12.929Z,100486.46
2023-01-10T19:09:05.843Z,100484.15
2023-01-10T19:11:43.581Z,100485.48
2023-01-10T19:14:24.357Z,100491.81
2023-01-10T19:17:02.026Z,100492.77
2023-01-10T19:19:41.168Z,100493.11
2023-01-10T19:22:52.921Z,100491.19
2023-01-10T19:25:43.519Z,100495.61
2023-01-10T19:29:13.651Z,100486.02
2023-01-10T19:32:33.252Z,100480.69
2023-01-10T19:35:59.885Z,100481.37
2023-01-10T19:39:56.562Z,100488.71
2023-01-10T19:43:50.074Z,100500.23
2023-01-10T19:47:22.924Z,100495.51
2023-01-10T19:50:38.750Z,100493.93
2023-01-10T19:53:10.287Z,100495.22
2023-01-10T19:56:05.181Z,100491.25
2023-01-10T19:58:47.295Z,100499.34
2023-01-10T20:01:26.061Z,100502.17
2023-01-10T20:04:04.361Z,100504.08
2023-01-10T20:06:38.505Z,100509.88
2023-01-10T20:09:10.866Z,100506.60
2023-01-10T20:11:43.492Z,100506.17
2023-01-10T20:14:17.147Z,100503.59
2023-01-10T20:16:50.619Z,100498.69
2023-01-10T20:19:25.959Z,100499.34
2023-01-10T20:22:16.199Z,100498.50
2023-01-10T20:24:49.577Z,100499.21
2023-01-10T20:27:22.081Z,100497.65
2023-01-10T20:29:54.888Z,100499.38
2023-01-10T20:32:25.276Z,100496.36
2023-01-10T20:34:57.072Z,100494.42
2023-01-10T20:37:28.868Z,100486.09
2023-01-10T20:39:59.690Z,100489.58
2023-01-10T20:42:29.584Z,100493.63
2023-01-10T20:45:02.429Z,100499.96
2023-01-10T20:47:38.762Z,100498.94
2023-01-10T20:50:09.912Z,100505.89
2023-01-10T20:52:39.891Z,100510.95
2023-01-10T20:55:10.274Z,100511.45
2023-01-10T20:57:43.282Z,100512.49
2023-01-10T21:00:13.842Z,100507.25
2023-01-10T21:02:48.193Z,100502.33
2023-01-10T21:05:18.935Z,100499.46
2023-01-10T21:07:49.093Z,100508.21
2023-01-10T21:10:21.282Z,100508.19
2023-01-10T21:12:50.801Z,100510.13
2023-01-10T21:15:24.101Z,100503.34
2023-01-10T21:17:54.582Z,100504.39
2023-01-10T21:20:28.656Z,100510.79
2023-01-10T21:23:00.068Z,100507.83
2023-01-10T21:25:32.095Z,100502.67
2023-01-10T21:28:02.767Z,100504.59
2023-01-10T21:30:32.812Z,100500.55
2023-01-10T21:33:03.944Z,100503.20
2023-01-10T21:35:34.768Z,100499.14
2023-01-10T21:38:07.072Z,100496.94
2023-01-10T21:40:40.119Z,100499.80
2023-01-10T21:43:10.365Z,100498.67
2023-01-10T21:45:42.709Z,100501.95
2023-01-10T21:48:11.950Z,100499.41
2023-01-10T21:50:43.748Z,100499.77
2023-01-10T21:53:13.047Z,100503.04
2023-01-10T21:55:46.135Z,100510.58
2023-01-10T21:58:19.244Z,100507.28
2023-01-10T22:00:48.811Z,100506.35
2023-01-10T22:03:19.998Z,100506.17
2023-01-10T22:05:50.410Z,100504.46
2023-01-10T22:08:19.244Z,100508.59
2023-01-10T22:10:48.802Z,100505.93
2023-01-10T22:13:18.987Z,100512.67
2023-01-10T22:15:49.379Z,100508.95
2023-01-10T22:18:21.179Z,100508.84
2023-01-10T22:20:51.639Z,100505.61
2023-01-10T22:23:21.630Z,100500.50
2023-01-10T22:26:22.188Z,100499.93
2023-01-10T22:28:52.636Z,100503.70
2023-01-10T22:31:23.616Z,100504.38
2023-01-10T22:33:54.233Z,100508.06
2023-01-10T22:36:24.534Z,100506.56
2023-01-10T22:38:55.837Z,100503.80
2023-01-10T22:41:27.130Z,100502.33
2023-01-10T22:43:57.474Z,100503.46
2023-01-10T22:46:34.172Z,100506.17
2023-01-10T22:49:04.111Z,100506.89
2023-01-10T22:51:35.912Z,100512.63
2023-01-10T22:54:07.360Z,100517.55
2023-01-10T22:56:38.101Z,100517.62
2023-01-10T22:59:08.095Z,100516.98
2023-01-10T23:04:27.090Z,100523.48
2023-01-10T23:06:58.951Z,100527.04
2023-01-10T23:09:32.179Z,100528.48
2023-01-10T23:12:01.680Z,100529.41
2023-01-10T23:14:33.529Z,100530.39
2023-01-10T23:17:03.303Z,100534.11
2023-01-10T23:19:35.091Z,100534.84
2023-01-10T23:22:05.107Z,100535.63
2023-01-10T23:24:36.916Z,100534.45
2023-01-10T23:27:06.761Z,100537.96
2023-01-10T23:29:39.034Z,100534.89
2023-01-10T23:32:08.476Z,100532.35
2023-01-10T23:34:41.654Z,100531.98
2023-01-10T23:37:13.876Z,100530.83
2023-01-10T23:39:44.537Z,100533.81
2023-01-10T23:42:13.722Z,100534.92
2023-01-10T23:44:45.435Z,100537.88
2023-01-10T23:47:17.682Z,100540.10
2023-01-10T23:49:47.473Z,100540.21
2023-01-10T23:52:17.049Z,100532.88
2023-01-10T23:54:47.231Z,100527.09
2023-01-10T23:57:23.095Z,100527.73
2023-01-10T23:59:53.912Z,100532.51
